sensor_id;sensor_type;location;lat;lon;timestamp;pressure;altitude;pressure_sealevel;temperature;humidity
4745;BME280;2386;42.138;24.746;2023-03-14T00:02:07;100097.88;;;6.21;55.96
4745;BME280;2386;42.138;24.746;2023-03-14T00:04:33;100087.63;;;6.31;55.72
4745;BME280;2386;42.138;24.746;2023-03-14T00:06:58;100084.28;;;6.29;56.42
4745;BME280;2386;42.138;24.746;2023-03-14T00:09:23;100091.09;;;6.25;56.68
4745;BME280;2386;42.138;24.746;2023-03-14T00:11:49;100083.69;;;6.12;57.09
4745;BME280;2386;42.138;24.746;2023-03-14T00:14:14;100079.53;;;6.10;56.09
4745;BME280;2386;42.138;24.746;2023-03-14T00:16:40;100072.97;;;5.98;56.85
4745;BME280;2386;42.138;24.746;2023-03-14T00:19:06;100070.50;;;5.81;57.53
4745;BME280;2386;42.138;24.746;2023-03-14T00:21:31;100068.72;;;5.88;57.48
4745;BME280;2386;42.138;24.746;2023-03-14T00:23:57;100061.56;;;5.96;58.06
4745;BME280;2386;42.138;24.746;2023-03-14T00:26:22;100062.97;;;5.91;58.88
4745;BME280;2386;42.138;24.746;2023-03-14T00:28:53;100052.28;;;6.19;57.66
4745;BME280;2386;42.138;24.746;2023-03-14T00:31:19;100057.34;;;6.29;56.65
4745;BME280;2386;42.138;24.746;2023-03-14T00:33:45;100046.84;;;6.34;55.91
4745;BME280;2386;42.138;24.746;2023-03-14T00:36:13;100045.75;;;6.29;56.41
4745;BME280;2386;42.138;24.746;2023-03-14T00:38:40;100044.56;;;5.95;58.10
4745;BME280;2386;42.138;24.746;2023-03-14T00:41:15;100040.47;;;5.63;59.56
4745;BME280;2386;42.138;24.746;2023-03-14T00:43:42;100034.44;;;5.61;60.41
4745;BME280;2386;42.138;24.746;2023-03-14T00:46:07;100029.22;;;5.59;60.38
4745;BME280;2386;42.138;24.746;2023-03-14T00:48:33;100036.50;;;5.44;60.67
4745;BME280;2386;42.138;24.746;2023-03-14T00:50:59;100030.66;;;5.41;61.70
4745;BME280;2386;42.138;24.746;2023-03-14T00:53:24;100023.78;;;5.38;61.83
4745;BME280;2386;42.138;24.746;2023-03-14T00:55:49;100026.84;;;5.50;61.64
4745;BME280;2386;42.138;24.746;2023-03-14T00:58:16;100014.97;;;5.29;62.89
4745;BME280;2386;42.138;24.746;2023-03-14T01:00:43;100014.75;;;5.60;61.71
4745;BME280;2386;42.138;24.746;2023-03-14T01:03:10;100023.56;;;5.69;61.08
4745;BME280;2386;42.138;24.746;2023-03-14T01:05:35;100013.16;;;5.66;60.75
4745;BME280;2386;42.138;24.746;2023-03-14T01:08:01;100006.19;;;5.72;60.96
4745;BME280;2386;42.138;24.746;2023-03-14T01:10:27;100001.75;;;5.64;62.25
4745;BME280;2386;42.138;24.746;2023-03-14T01:12:53;100006.03;;;5.58;61.79
4745;BME280;2386;42.138;24.746;2023-03-14T01:15:18;99995.41;;;5.36;62.29
4745;BME280;2386;42.138;24.746;2023-03-14T01:17:44;99989.34;;;5.48;62.09
4745;BME280;2386;42.138;24.746;2023-03-14T01:20:11;99990.34;;;5.62;60.79
4745;BME280;2386;42.138;24.746;2023-03-14T01:22:38;99993.34;;;5.52;61.54
4745;BME280;2386;42.138;24.746;2023-03-14T01:25:06;99985.47;;;5.51;62.08
4745;BME280;2386;42.138;24.746;2023-03-14T01:27:33;99983.16;;;5.48;62.24
4745;BME280;2386;42.138;24.746;2023-03-14T01:29:58;99986.59;;;5.27;63.28
4745;BME280;2386;42.138;24.746;2023-03-14T01:32:24;99991.69;;;5.37;62.76
4745;BME280;2386;42.138;24.746;2023-03-14T01:34:50;99991.00;;;5.64;61.03
4745;BME280;2386;42.138;24.746;2023-03-14T01:37:16;99985.44;;;5.66;61.61
4745;BME280;2386;42.138;24.746;2023-03-14T01:39:41;99981.09;;;5.50;61.49
4745;BME280;2386;42.138;24.746;2023-03-14T01:42:06;99986.50;;;5.35;62.80
4745;BME280;2386;42.138;24.746;2023-03-14T01:47:13;99984.72;;;5.42;62.44
4745;BME280;2386;42.138;24.746;2023-03-14T01:49:39;99980.09;;;5.36;63.04
4745;BME280;2386;42.138;24.746;2023-03-14T01:52:16;99975.34;;;5.53;62.79
4745;BME280;2386;42.138;24.746;2023-03-14T01:54:48;99971.19;;;5.50;62.04
4745;BME280;2386;42.138;24.746;2023-03-14T01:59:46;99975.56;;;5.37;63.55
4745;BME280;2386;42.138;24.746;2023-03-14T02:02:15;99967.28;;;5.17;63.72
4745;BME280;2386;42.138;24.746;2023-03-14T02:04:41;99977.59;;;5.35;64.24
4745;BME280;2386;42.138;24.746;2023-03-14T02:07:20;99971.16;;;5.14;63.90
4745;BME280;2386;42.138;24.746;2023-03-14T02:09:48;99972.75;;;5.09;64.36
4745;BME280;2386;42.138;24.746;2023-03-14T02:12:16;99956.34;;;4.89;62.95
4745;BME280;2386;42.138;24.746;2023-03-14T02:14:43;99963.66;;;4.95;62.25
4745;BME280;2386;42.138;24.746;2023-03-14T02:17:14;99973.59;;;5.09;61.95
4745;BME280;2386;42.138;24.746;2023-03-14T02:22:21;99959.50;;;5.07;61.90
4745;BME280;2386;42.138;24.746;2023-03-14T02:27:44;99949.56;;;5.08;61.44
4745;BME280;2386;42.138;24.746;2023-03-14T02:30:11;99954.50;;;5.04;61.82
4745;BME280;2386;42.138;24.746;2023-03-14T02:32:39;99955.50;;;5.03;62.02
4745;BME280;2386;42.138;24.746;2023-03-14T02:35:17;99964.88;;;5.07;61.20
4745;BME280;2386;42.138;24.746;2023-03-14T02:40:58;99955.41;;;4.97;62.23
4745;BME280;2386;42.138;24.746;2023-03-14T02:43:23;99946.06;;;4.92;63.00
4745;BME280;2386;42.138;24.746;2023-03-14T02:45:50;99953.66;;;5.04;61.18
4745;BME280;2386;42.138;24.746;2023-03-14T02:48:26;99958.03;;;4.90;62.90
4745;BME280;2386;42.138;24.746;2023-03-14T02:50:57;99961.06;;;5.02;62.92
4745;BME280;2386;42.138;24.746;2023-03-14T02:53:32;99965.53;;;5.09;62.82
4745;BME280;2386;42.138;24.746;2023-03-14T02:55:57;99971.00;;;5.01;62.22
4745;BME280;2386;42.138;24.746;2023-03-14T02:58:23;99972.56;;;4.95;62.65
4745;BME280;2386;42.138;24.746;2023-03-14T03:00:49;99965.72;;;4.93;63.65
4745;BME280;2386;42.138;24.746;2023-03-14T03:03:14;99968.94;;;5.03;63.35
4745;BME280;2386;42.138;24.746;2023-03-14T03:05:40;99959.63;;;5.20;63.26
4745;BME280;2386;42.138;24.746;2023-03-14T03:08:05;99970.34;;;5.50;61.74
4745;BME280;2386;42.138;24.746;2023-03-14T03:10:31;99973.81;;;5.65;61.44
4745;BME280;2386;42.138;24.746;2023-03-14T03:12:57;99982.63;;;5.74;61.60
4745;BME280;2386;42.138;24.746;2023-03-14T03:15:23;99975.25;;;5.82;60.85
4745;BME280;2386;42.138;24.746;2023-03-14T03:17:48;99974.03;;;5.85;60.16
4745;BME280;2386;42.138;24.746;2023-03-14T03:20:14;99977.88;;;5.90;60.49
4745;BME280;2386;42.138;24.746;2023-03-14T03:22:39;99967.03;;;5.69;61.07
4745;BME280;2386;42.138;24.746;2023-03-14T03:25:07;99974.25;;;5.47;61.94
4745;BME280;2386;42.138;24.746;2023-03-14T03:27:34;99980.28;;;5.35;63.22
4745;BME280;2386;42.138;24.746;2023-03-14T03:30:00;99971.44;;;5.19;64.51
4745;BME280;2386;42.138;24.746;2023-03-14T03:32:27;99975.28;;;5.32;64.52
4745;BME280;2386;42.138;24.746;2023-03-14T03:34:52;99964.63;;;5.23;64.92
4745;BME280;2386;42.138;24.746;2023-03-14T03:37:18;99959.50;;;5.07;65.28
4745;BME280;2386;42.138;24.746;2023-03-14T03:39:44;99963.94;;;5.15;65.11
4745;BME280;2386;42.138;24.746;2023-03-14T03:42:09;99964.69;;;5.45;62.78
4745;BME280;2386;42.138;24.746;2023-03-14T03:44:35;99968.22;;;5.45;63.72
4745;BME280;2386;42.138;24.746;2023-03-14T03:47:01;99965.34;;;5.47;63.03
4745;BME280;2386;42.138;24.746;2023-03-14T03:49:32;99967.28;;;5.53;62.81
4745;BME280;2386;42.138;24.746;2023-03-14T03:51:58;99963.41;;;5.41;62.51
4745;BME280;2386;42.138;24.746;2023-03-14T03:54:24;99968.25;;;5.31;64.78
4745;BME280;2386;42.138;24.746;2023-03-14T03:56:50;99965.41;;;5.17;65.72
4745;BME280;2386;42.138;24.746;2023-03-14T03:59:15;99964.59;;;5.02;66.35
4745;BME280;2386;42.138;24.746;2023-03-14T04:01:40;99958.94;;;4.97;66.22
4745;BME280;2386;42.138;24.746;2023-03-14T04:04:06;99960.06;;;4.88;66.48
4745;BME280;2386;42.138;24.746;2023-03-14T04:06:32;99958.84;;;4.90;66.64
4745;BME280;2386;42.138;24.746;2023-03-14T04:08:57;99952.34;;;4.70;67.58
4745;BME280;2386;42.138;24.746;2023-03-14T04:11:23;99944.13;;;4.72;67.94
4745;BME280;2386;42.138;24.746;2023-03-14T04:13:48;99953.94;;;4.79;68.42
4745;BME280;2386;42.138;24.746;2023-03-14T04:16:21;99937.63;;;4.81;67.61
4745;BME280;2386;42.138;24.746;2023-03-14T04:18:47;99939.19;;;4.75;68.74
4745;BME280;2386;42.138;24.746;2023-03-14T04:21:13;99939.56;;;4.57;68.44
4745;BME280;2386;42.138;24.746;2023-03-14T04:23:39;99937.16;;;4.33;69.19
4745;BME280;2386;42.138;24.746;2023-03-14T04:26:04;99933.75;;;4.69;69.77
4745;BME280;2386;42.138;24.746;2023-03-14T04:28:30;99938.47;;;4.81;68.56
4745;BME280;2386;42.138;24.746;2023-03-14T04:30:55;99941.97;;;4.82;68.49
4745;BME280;2386;42.138;24.746;2023-03-14T04:33:21;99931.69;;;5.00;68.38
4745;BME280;2386;42.138;24.746;2023-03-14T04:35:46;99938.19;;;4.91;67.86
4745;BME280;2386;42.138;24.746;2023-03-14T04:38:13;99927.91;;;4.80;68.89
4745;BME280;2386;42.138;24.746;2023-03-14T04:40:39;99933.28;;;4.65;70.12
4745;BME280;2386;42.138;24.746;2023-03-14T04:43:05;99935.41;;;4.70;70.39
4745;BME280;2386;42.138;24.746;2023-03-14T04:45:30;99928.25;;;4.62;70.67
4745;BME280;2386;42.138;24.746;2023-03-14T04:47:56;99926.22;;;4.64;71.00
4745;BME280;2386;42.138;24.746;2023-03-14T04:50:21;99922.81;;;4.41;70.93
4745;BME280;2386;42.138;24.746;2023-03-14T04:52:46;99934.19;;;4.57;71.45
4745;BME280;2386;42.138;24.746;2023-03-14T04:55:12;99932.81;;;4.61;70.87
4745;BME280;2386;42.138;24.746;2023-03-14T04:57:37;99935.41;;;4.70;70.77
4745;BME280;2386;42.138;24.746;2023-03-14T05:00:04;99940.59;;;4.56;71.14
4745;BME280;2386;42.138;24.746;2023-03-14T05:02:32;99941.88;;;4.60;70.77
4745;BME280;2386;42.138;24.746;2023-03-14T05:04:58;99949.13;;;4.75;69.65
4745;BME280;2386;42.138;24.746;2023-03-14T05:07:23;99944.13;;;4.72;69.90
4745;BME280;2386;42.138;24.746;2023-03-14T05:09:48;99947.63;;;4.72;69.10
4745;BME280;2386;42.138;24.746;2023-03-14T05:12:14;99949.69;;;4.85;68.56
4745;BME280;2386;42.138;24.746;2023-03-14T05:14:39;99952.63;;;4.90;68.90
4745;BME280;2386;42.138;24.746;2023-03-14T05:17:05;99962.38;;;4.91;68.74
4745;BME280;2386;42.138;24.746;2023-03-14T05:19:30;99953.56;;;4.82;69.58
4745;BME280;2386;42.138;24.746;2023-03-14T05:21:56;99953.19;;;5.00;69.08
4745;BME280;2386;42.138;24.746;2023-03-14T05:24:22;99959.41;;;5.15;68.66
4745;BME280;2386;42.138;24.746;2023-03-14T05:26:47;99956.69;;;5.15;68.71
4745;BME280;2386;42.138;24.746;2023-03-14T05:29:12;99960.28;;;5.22;68.12
4745;BME280;2386;42.138;24.746;2023-03-14T05:31:38;99965.94;;;5.27;67.97
4745;BME280;2386;42.138;24.746;2023-03-14T05:34:04;99962.94;;;5.37;67.83
4745;BME280;2386;42.138;24.746;2023-03-14T05:36:29;99963.81;;;5.59;67.30
4745;BME280;2386;42.138;24.746;2023-03-14T05:38:54;99962.22;;;5.65;67.20
4745;BME280;2386;42.138;24.746;2023-03-14T05:41:20;99963.28;;;5.85;67.27
4745;BME280;2386;42.138;24.746;2023-03-14T05:43:45;99964.44;;;5.76;67.78
4745;BME280;2386;42.138;24.746;2023-03-14T05:46:10;99958.13;;;5.69;67.97
4745;BME280;2386;42.138;24.746;2023-03-14T05:48:36;99950.78;;;5.77;65.51
4745;BME280;2386;42.138;24.746;2023-03-14T05:51:01;99957.31;;;5.68;66.60
4745;BME280;2386;42.138;24.746;2023-03-14T05:53:27;99970.50;;;5.63;66.26
4745;BME280;2386;42.138;24.746;2023-03-14T05:55:55;99955.88;;;5.51;66.85
4745;BME280;2386;42.138;24.746;2023-03-14T05:58:21;99967.28;;;5.53;66.43
4745;BME280;2386;42.138;24.746;2023-03-14T06:00:46;99965.72;;;5.44;67.07
4745;BME280;2386;42.138;24.746;2023-03-14T06:03:12;99953.19;;;5.51;66.21
4745;BME280;2386;42.138;24.746;2023-03-14T06:05:37;99953.13;;;5.66;67.58
4745;BME280;2386;42.138;24.746;2023-03-14T06:08:03;99960.13;;;5.81;65.38
4745;BME280;2386;42.138;24.746;2023-03-14T06:10:28;99955.25;;;5.70;66.38
4745;BME280;2386;42.138;24.746;2023-03-14T06:12:54;99962.53;;;5.91;65.20
4745;BME280;2386;42.138;24.746;2023-03-14T06:15:19;99962.19;;;6.01;64.80
4745;BME280;2386;42.138;24.746;2023-03-14T06:17:45;99945.91;;;5.87;65.45
4745;BME280;2386;42.138;24.746;2023-03-14T06:20:11;99948.47;;;5.74;65.96
4745;BME280;2386;42.138;24.746;2023-03-14T06:22:36;99948.91;;;5.78;67.13
4745;BME280;2386;42.138;24.746;2023-03-14T06:25:02;99944.63;;;5.83;67.21
4745;BME280;2386;42.138;24.746;2023-03-14T06:27:29;99938.84;;;6.08;65.97
4745;BME280;2386;42.138;24.746;2023-03-14T06:29:54;99942.09;;;6.24;62.71
4745;BME280;2386;42.138;24.746;2023-03-14T06:32:19;99940.75;;;6.35;62.98
4745;BME280;2386;42.138;24.746;2023-03-14T06:34:45;99940.66;;;6.50;61.97
4745;BME280;2386;42.138;24.746;2023-03-14T06:37:11;99936.09;;;6.50;61.44
4745;BME280;2386;42.138;24.746;2023-03-14T06:39:36;99938.44;;;6.60;61.29
4745;BME280;2386;42.138;24.746;2023-03-14T06:42:03;99950.69;;;6.69;61.88
4745;BME280;2386;42.138;24.746;2023-03-14T06:44:29;99943.97;;;6.52;61.47
4745;BME280;2386;42.138;24.746;2023-03-14T06:46:55;99953.13;;;6.57;63.00
4745;BME280;2386;42.138;24.746;2023-03-14T06:49:20;99943.69;;;6.75;60.77
4745;BME280;2386;42.138;24.746;2023-03-14T06:51:46;99948.13;;;6.89;59.65
4745;BME280;2386;42.138;24.746;2023-03-14T06:54:11;99942.34;;;6.92;59.57
4745;BME280;2386;42.138;24.746;2023-03-14T06:56:37;99943.19;;;6.92;59.15
4745;BME280;2386;42.138;24.746;2023-03-14T06:59:03;99934.25;;;6.92;59.63
4745;BME280;2386;42.138;24.746;2023-03-14T07:01:30;99935.13;;;6.99;59.00
4745;BME280;2386;42.138;24.746;2023-03-14T07:03:56;99928.22;;;6.90;60.04
4745;BME280;2386;42.138;24.746;2023-03-14T07:06:22;99928.53;;;7.08;58.73
4745;BME280;2386;42.138;24.746;2023-03-14T07:08:48;99916.66;;;6.96;58.95
4745;BME280;2386;42.138;24.746;2023-03-14T07:11:13;99921.00;;;6.97;59.50
4745;BME280;2386;42.138;24.746;2023-03-14T07:13:39;99909.25;;;7.11;58.98
4745;BME280;2386;42.138;24.746;2023-03-14T07:16:05;99913.44;;;7.20;59.49
4745;BME280;2386;42.138;24.746;2023-03-14T07:18:31;99909.31;;;7.24;59.31
4745;BME280;2386;42.138;24.746;2023-03-14T07:20:56;99910.22;;;6.97;59.42
4745;BME280;2386;42.138;24.746;2023-03-14T07:23:22;99905.63;;;6.91;59.33
4745;BME280;2386;42.138;24.746;2023-03-14T07:25:47;99905.00;;;6.89;60.23
4745;BME280;2386;42.138;24.746;2023-03-14T07:28:13;99890.38;;;7.11;59.26
4745;BME280;2386;42.138;24.746;2023-03-14T07:30:38;99889.59;;;7.31;59.07
4745;BME280;2386;42.138;24.746;2023-03-14T07:33:03;99901.06;;;7.59;57.98
4745;BME280;2386;42.138;24.746;2023-03-14T07:35:29;99894.25;;;7.70;57.25
4745;BME280;2386;42.138;24.746;2023-03-14T07:37:54;99882.22;;;7.79;56.18
4745;BME280;2386;42.138;24.746;2023-03-14T07:40:20;99900.25;;;7.72;55.37
4745;BME280;2386;42.138;24.746;2023-03-14T07:42:45;99893.00;;;7.72;55.76
4745;BME280;2386;42.138;24.746;2023-03-14T07:45:11;99889.25;;;7.67;55.63
4745;BME280;2386;42.138;24.746;2023-03-14T07:47:36;99873.28;;;7.78;54.16
4745;BME280;2386;42.138;24.746;2023-03-14T07:50:04;99885.53;;;7.74;54.40
4745;BME280;2386;42.138;24.746;2023-03-14T07:52:29;99883.84;;;7.67;54.84
4745;BME280;2386;42.138;24.746;2023-03-14T07:54:55;99876.41;;;7.82;55.14
4745;BME280;2386;42.138;24.746;2023-03-14T07:57:21;99882.63;;;7.82;53.82
4745;BME280;2386;42.138;24.746;2023-03-14T07:59:46;99878.03;;;7.63;54.12
4745;BME280;2386;42.138;24.746;2023-03-14T08:02:12;99878.03;;;7.63;54.56
4745;BME280;2386;42.138;24.746;2023-03-14T08:04:39;99875.97;;;7.72;54.97
4745;BME280;2386;42.138;24.746;2023-03-14T08:07:05;99873.91;;;7.74;55.73
4745;BME280;2386;42.138;24.746;2023-03-14T08:09:31;99864.16;;;8.06;54.78
4745;BME280;2386;42.138;24.746;2023-03-14T08:11:56;99864.13;;;8.19;54.20
4745;BME280;2386;42.138;24.746;2023-03-14T08:14:22;99862.91;;;8.02;52.94
4745;BME280;2386;42.138;24.746;2023-03-14T08:16:50;99856.25;;;8.11;53.14
4745;BME280;2386;42.138;24.746;2023-03-14T08:19:16;99853.56;;;7.98;54.27
4745;BME280;2386;42.138;24.746;2023-03-14T08:21:41;99860.00;;;8.03;53.51
4745;BME280;2386;42.138;24.746;2023-03-14T08:24:07;99863.47;;;8.23;54.05
4745;BME280;2386;42.138;24.746;2023-03-14T08:26:33;99854.34;;;8.31;53.43
4745;BME280;2386;42.138;24.746;2023-03-14T08:28:58;99850.19;;;8.48;53.36
4745;BME280;2386;42.138;24.746;2023-03-14T08:31:24;99845.53;;;8.75;52.21
4745;BME280;2386;42.138;24.746;2023-03-14T08:33:49;99845.00;;;8.98;51.24
4745;BME280;2386;42.138;24.746;2023-03-14T08:36:17;99846.41;;;9.07;50.50
4745;BME280;2386;42.138;24.746;2023-03-14T08:38:43;99838.22;;;9.20;50.29
4745;BME280;2386;42.138;24.746;2023-03-14T08:41:08;99834.00;;;9.31;49.55
4745;BME280;2386;42.138;24.746;2023-03-14T08:43:34;99825.66;;;9.33;49.67
4745;BME280;2386;42.138;24.746;2023-03-14T08:46:01;99837.09;;;9.35;48.97
4745;BME280;2386;42.138;24.746;2023-03-14T08:48:27;99832.69;;;9.40;49.08
4745;BME280;2386;42.138;24.746;2023-03-14T08:50:55;99828.47;;;9.51;48.61
4745;BME280;2386;42.138;24.746;2023-03-14T08:53:21;99814.81;;;9.39;48.55
4745;BME280;2386;42.138;24.746;2023-03-14T08:55:52;99810.81;;;9.42;48.32
4745;BME280;2386;42.138;24.746;2023-03-14T08:58:17;99810.47;;;9.63;48.29
4745;BME280;2386;42.138;24.746;2023-03-14T09:00:43;99803.31;;;9.69;46.90
4745;BME280;2386;42.138;24.746;2023-03-14T09:03:08;99793.03;;;9.77;47.52
4745;BME280;2386;42.138;24.746;2023-03-14T09:05:34;99791.09;;;9.84;46.46
4745;BME280;2386;42.138;24.746;2023-03-14T09:07:59;99788.56;;;9.89;47.01
4745;BME280;2386;42.138;24.746;2023-03-14T09:10:25;99780.16;;;9.98;47.50
4745;BME280;2386;42.138;24.746;2023-03-14T09:12:50;99771.28;;;10.09;47.03
4745;BME280;2386;42.138;24.746;2023-03-14T09:15:16;99772.25;;;10.21;46.46
4745;BME280;2386;42.138;24.746;2023-03-14T09:17:42;99768.56;;;10.34;44.95
4745;BME280;2386;42.138;24.746;2023-03-14T09:20:09;99757.72;;;10.09;45.57
4745;BME280;2386;42.138;24.746;2023-03-14T09:22:35;99758.84;;;10.01;46.13
4745;BME280;2386;42.138;24.746;2023-03-14T09:25:02;99758.69;;;10.21;45.51
4745;BME280;2386;42.138;24.746;2023-03-14T09:27:27;99757.47;;;10.35;44.92
4745;BME280;2386;42.138;24.746;2023-03-14T09:29:52;99747.28;;;10.49;44.83
4745;BME280;2386;42.138;24.746;2023-03-14T09:32:18;99735.69;;;10.60;44.36
4745;BME280;2386;42.138;24.746;2023-03-14T09:34:43;99726.25;;;10.63;43.26
4745;BME280;2386;42.138;24.746;2023-03-14T09:37:09;99722.63;;;10.69;43.64
4745;BME280;2386;42.138;24.746;2023-03-14T09:39:34;99726.22;;;10.81;43.22
4745;BME280;2386;42.138;24.746;2023-03-14T09:42:02;99730.13;;;10.85;42.12
4745;BME280;2386;42.138;24.746;2023-03-14T09:44:33;99719.56;;;10.95;42.62
4745;BME280;2386;42.138;24.746;2023-03-14T09:47:03;99724.19;;;11.06;41.88
4745;BME280;2386;42.138;24.746;2023-03-14T09:49:41;99715.91;;;11.01;42.10
4745;BME280;2386;42.138;24.746;2023-03-14T09:52:15;99713.09;;;11.08;40.75
4745;BME280;2386;42.138;24.746;2023-03-14T09:54:49;99716.66;;;11.08;41.13
4745;BME280;2386;42.138;24.746;2023-03-14T09:57:17;99712.84;;;10.98;41.15
4745;BME280;2386;42.138;24.746;2023-03-14T09:59:45;99712.59;;;10.99;41.69
4745;BME280;2386;42.138;24.746;2023-03-14T10:02:18;99705.44;;;11.16;41.61
4745;BME280;2386;42.138;24.746;2023-03-14T10:04:45;99697.88;;;11.18;41.00
4745;BME280;2386;42.138;24.746;2023-03-14T10:07:31;99703.34;;;11.30;41.26
4745;BME280;2386;42.138;24.746;2023-03-14T10:09:58;99695.09;;;11.37;40.88
4745;BME280;2386;42.138;24.746;2023-03-14T10:12:34;99684.81;;;11.39;41.08
4745;BME280;2386;42.138;24.746;2023-03-14T10:15:26;99676.69;;;11.50;41.47
4745;BME280;2386;42.138;24.746;2023-03-14T10:17:52;99663.94;;;11.63;41.04
4745;BME280;2386;42.138;24.746;2023-03-14T10:20:31;99657.06;;;11.72;40.74
4745;BME280;2386;42.138;24.746;2023-03-14T10:23:04;99657.94;;;11.84;40.83
4745;BME280;2386;42.138;24.746;2023-03-14T10:25:33;99640.88;;;11.89;39.85
4745;BME280;2386;42.138;24.746;2023-03-14T10:28:00;99640.41;;;11.92;40.30
4745;BME280;2386;42.138;24.746;2023-03-14T10:30:45;99643.03;;;11.87;40.00
4745;BME280;2386;42.138;24.746;2023-03-14T10:33:28;99643.56;;;12.00;40.63
4745;BME280;2386;42.138;24.746;2023-03-14T10:35:56;99633.25;;;12.14;40.40
4745;BME280;2386;42.138;24.746;2023-03-14T10:38:28;99631.59;;;12.13;39.49
4745;BME280;2386;42.138;24.746;2023-03-14T10:40:57;99623.22;;;12.14;39.44
4745;BME280;2386;42.138;24.746;2023-03-14T10:43:27;99614.84;;;12.04;39.87
4745;BME280;2386;42.138;24.746;2023-03-14T10:46:02;99605.16;;;11.97;40.09
4745;BME280;2386;42.138;24.746;2023-03-14T10:48:32;99596.28;;;12.01;40.08
4745;BME280;2386;42.138;24.746;2023-03-14T10:51:03;99595.47;;;12.01;40.29
4745;BME280;2386;42.138;24.746;2023-03-14T10:53:34;99583.78;;;11.89;40.79
4745;BME280;2386;42.138;24.746;2023-03-14T10:59:14;99578.69;;;12.32;41.27
4745;BME280;2386;42.138;24.746;2023-03-14T11:09:58;99544.94;;;12.62;39.88
4745;BME280;2386;42.138;24.746;2023-03-14T11:12:38;99543.94;;;12.68;40.04
4745;BME280;2386;42.138;24.746;2023-03-14T11:26:03;99501.63;;;12.94;38.62
4745;BME280;2386;42.138;24.746;2023-03-14T11:28:39;99481.75;;;12.93;38.71
4745;BME280;2386;42.138;24.746;2023-03-14T11:31:31;99480.75;;;12.99;39.39
4745;BME280;2386;42.138;24.746;2023-03-14T11:34:19;99462.50;;;13.00;38.48
4745;BME280;2386;42.138;24.746;2023-03-14T11:37:00;99468.59;;;13.07;38.74
4745;BME280;2386;42.138;24.746;2023-03-14T11:39:54;99459.78;;;13.17;38.82
4745;BME280;2386;42.138;24.746;2023-03-14T11:42:21;99452.84;;;13.26;38.66
4745;BME280;2386;42.138;24.746;2023-03-14T11:44:49;99442.00;;;13.31;38.52
4745;BME280;2386;42.138;24.746;2023-03-14T11:47:23;99435.53;;;13.37;37.75
4745;BME280;2386;42.138;24.746;2023-03-14T11:50:16;99435.78;;;13.35;38.11
4745;BME280;2386;42.138;24.746;2023-03-14T11:55:42;99416.91;;;13.29;38.44
4745;BME280;2386;42.138;24.746;2023-03-14T11:58:30;99406.84;;;13.29;38.92
4745;BME280;2386;42.138;24.746;2023-03-14T12:00:57;99395.13;;;13.29;38.59
4745;BME280;2386;42.138;24.746;2023-03-14T12:08:39;99366.13;;;13.18;39.64
4745;BME280;2386;42.138;24.746;2023-03-14T12:13:54;99346.72;;;13.36;39.22
4745;BME280;2386;42.138;24.746;2023-03-14T12:18:47;99332.16;;;13.52;38.94
4745;BME280;2386;42.138;24.746;2023-03-14T12:21:13;99329.47;;;13.57;39.84
4745;BME280;2386;42.138;24.746;2023-03-14T12:26:14;99318.91;;;13.93;39.47
4745;BME280;2386;42.138;24.746;2023-03-14T12:36:52;99300.78;;;14.51;38.75
4745;BME280;2386;42.138;24.746;2023-03-14T12:39:56;99293.22;;;14.68;39.09
4745;BME280;2386;42.138;24.746;2023-03-14T12:45:24;99287.84;;;14.88;38.59
4745;BME280;2386;42.138;24.746;2023-03-14T12:47:53;99282.72;;;15.12;38.76
4745;BME280;2386;42.138;24.746;2023-03-14T12:50:24;99286.03;;;15.24;38.60
4745;BME280;2386;42.138;24.746;2023-03-14T12:58:44;99265.34;;;15.54;37.84
4745;BME280;2386;42.138;24.746;2023-03-14T13:01:19;99264.81;;;15.82;38.02
4745;BME280;2386;42.138;24.746;2023-03-14T13:03:54;99269.84;;;16.70;37.44
4745;BME280;2386;42.138;24.746;2023-03-14T13:09:35;99266.31;;;21.70;29.31
4745;BME280;2386;42.138;24.746;2023-03-14T13:12:13;99258.94;;;24.06;26.39
4745;BME280;2386;42.138;24.746;2023-03-14T13:14:48;99266.63;;;25.74;24.29
4745;BME280;2386;42.138;24.746;2023-03-14T13:17:16;99256.59;;;25.81;23.84
4745;BME280;2386;42.138;24.746;2023-03-14T13:19:50;99248.03;;;27.01;22.55
4745;BME280;2386;42.138;24.746;2023-03-14T13:22:26;99248.28;;;27.61;22.15
4745;BME280;2386;42.138;24.746;2023-03-14T13:25:06;99250.56;;;27.59;21.09
4745;BME280;2386;42.138;24.746;2023-03-14T13:27:33;99241.94;;;27.76;21.35
4745;BME280;2386;42.138;24.746;2023-03-14T13:32:42;99239.84;;;28.29;20.17
4745;BME280;2386;42.138;24.746;2023-03-14T13:35:39;99230.22;;;27.42;20.94
4745;BME280;2386;42.138;24.746;2023-03-14T13:38:13;99219.91;;;25.88;22.47
4745;BME280;2386;42.138;24.746;2023-03-14T13:40:43;99223.75;;;24.53;23.67
4745;BME280;2386;42.138;24.746;2023-03-14T13:45:51;99203.31;;;21.94;26.86
4745;BME280;2386;42.138;24.746;2023-03-14T13:48:17;99192.28;;;21.13;27.36
4745;BME280;2386;42.138;24.746;2023-03-14T13:50:56;99195.88;;;20.50;28.26
4745;BME280;2386;42.138;24.746;2023-03-14T13:53:24;99180.94;;;19.64;29.69
4745;BME280;2386;42.138;24.746;2023-03-14T13:55:50;99168.66;;;19.24;30.20
4745;BME280;2386;42.138;24.746;2023-03-14T13:58:25;99170.88;;;19.03;30.15
4745;BME280;2386;42.138;24.746;2023-03-14T14:01:09;99167.81;;;18.67;30.92
4745;BME280;2386;42.138;24.746;2023-03-14T14:03:39;99159.59;;;18.19;31.72
4745;BME280;2386;42.138;24.746;2023-03-14T14:06:16;99155.00;;;17.86;32.34
4745;BME280;2386;42.138;24.746;2023-03-14T14:08:45;99137.34;;;17.73;32.94
4745;BME280;2386;42.138;24.746;2023-03-14T14:11:21;99126.50;;;17.24;33.44
4745;BME280;2386;42.138;24.746;2023-03-14T14:13:48;99134.44;;;16.91;33.83
4745;BME280;2386;42.138;24.746;2023-03-14T14:16:16;99113.91;;;16.89;33.86
4745;BME280;2386;42.138;24.746;2023-03-14T14:18:45;99123.44;;;16.96;34.30
4745;BME280;2386;42.138;24.746;2023-03-14T14:21:11;99120.84;;;16.76;33.71
4745;BME280;2386;42.138;24.746;2023-03-14T14:23:38;99120.31;;;16.69;33.96
4745;BME280;2386;42.138;24.746;2023-03-14T14:26:05;99103.91;;;16.59;34.88
4745;BME280;2386;42.138;24.746;2023-03-14T14:28:35;99116.78;;;16.68;34.79
4745;BME280;2386;42.138;24.746;2023-03-14T14:31:18;99117.06;;;16.57;33.92
4745;BME280;2386;42.138;24.746;2023-03-14T14:34:01;99104.63;;;16.30;34.65
4745;BME280;2386;42.138;24.746;2023-03-14T14:36:36;99096.47;;;16.20;34.69
4745;BME280;2386;42.138;24.746;2023-03-14T14:39:26;99093.25;;;16.03;35.30
4745;BME280;2386;42.138;24.746;2023-03-14T14:41:53;99088.88;;;16.07;35.65